createdAt,value
2017-04-30T00:00:05.426Z,91.33
2017-04-30T00:01:14.696Z,91.52
2017-04-30T00:02:23.914Z,91.24
2017-04-30T00:03:33.124Z,91.42
2017-04-30T00:04:42.336Z,91.05
2017-04-30T00:05:51.875Z,91.52
2017-04-30T00:07:01.243Z,91.42
2017-04-30T00:08:10.778Z,91.61
2017-04-30T00:09:20.636Z,91.99
2017-04-30T00:10:30.499Z,91.61
2017-04-30T00:11:39.388Z,92.09
2017-04-30T00:12:48.424Z,91.33
2017-04-30T00:13:57.966Z,91.33
2017-04-30T00:15:07.179Z,91.52
2017-04-30T00:16:16.712Z,91.61
2017-04-30T00:17:25.928Z,91.24
2017-04-30T00:18:35.511Z,91.24
2017-04-30T00:19:45.053Z,91.42
2017-04-30T00:20:53.938Z,91.71
2017-04-30T00:22:03.147Z,91.42
2017-04-30T00:23:12.681Z,91.52
2017-04-30T00:24:22.591Z,91.42
2017-04-30T00:25:32.129Z,91.52
2017-04-30T00:26:41.668Z,91.9
2017-04-30T00:27:50.882Z,92.38
2017-04-30T00:29:00.416Z,92.66
2017-04-30T00:30:10.260Z,92.18
2017-04-30T00:31:19.467Z,91.99
2017-04-30T00:32:28.673Z,92.57
2017-04-30T00:33:38.259Z,92.57
2017-04-30T00:34:47.468Z,92.66
2017-04-30T00:35:56.741Z,92.47
2017-04-30T00:37:05.630Z,92.38
2017-04-30T00:38:14.844Z,93.51
2017-04-30T00:39:24.068Z,94.74
2017-04-30T00:40:33.602Z,94.27
2017-04-30T00:41:43.219Z,92.38
2017-04-30T00:42:52.439Z,92.38
2017-04-30T00:44:02.300Z,92.85
2017-04-30T00:45:11.835Z,93.8
2017-04-30T00:46:20.724Z,93.99
2017-04-30T00:47:29.710Z,93.61
2017-04-30T00:48:38.924Z,94.08
2017-04-30T00:49:47.806Z,94.18
2017-04-30T00:50:57.059Z,93.8
2017-04-30T00:52:06.276Z,94.46
2017-04-30T00:53:15.314Z,93.7
2017-04-30T00:54:24.533Z,94.65
2017-04-30T00:55:33.753Z,93.7
2017-04-30T00:56:42.961Z,93.32
2017-04-30T00:57:52.496Z,92.57
2017-04-30T00:59:01.856Z,93.04
2017-04-30T01:00:11.392Z,93.23
2017-04-30T01:01:20.277Z,92.9
2017-04-30T01:02:29.161Z,92.76
2017-04-30T01:03:38.692Z,92.42
2017-04-30T01:04:47.721Z,92.8
2017-04-30T01:05:56.932Z,92.85
2017-04-30T01:07:05.814Z,93.18
2017-04-30T01:08:15.022Z,92.71
2017-04-30T01:09:24.559Z,92.61
2017-04-30T01:10:33.869Z,92.85
2017-04-30T01:11:42.755Z,92.9
2017-04-30T01:12:51.965Z,92.66
2017-04-30T01:14:01.506Z,92.57
2017-04-30T01:15:11.362Z,92.57
2017-04-30T01:16:20.395Z,93.08
2017-04-30T01:17:29.278Z,92.33
2017-04-30T01:18:38.486Z,92.52
2017-04-30T01:19:48.025Z,92.33
2017-04-30T01:20:57.573Z,92.42
2017-04-30T01:22:06.779Z,91.85
2017-04-30T01:23:15.995Z,92.42
2017-04-30T01:24:25.858Z,92.61
2017-04-30T01:25:35.072Z,92.04
2017-04-30T01:26:43.961Z,92.14
2017-04-30T01:27:53.232Z,92.33
2017-04-30T01:29:02.773Z,92.23
2017-04-30T01:30:12.309Z,92.33
2017-04-30T01:31:21.525Z,92.42
2017-04-30T01:32:30.730Z,92.61
2017-04-30T01:33:40.418Z,92.42
2017-04-30T01:34:49.626Z,92.23
2017-04-30T01:35:58.834Z,92.9
2017-04-30T01:37:08.040Z,92.71
2017-04-30T01:38:17.247Z,92.71
2017-04-30T01:39:27.258Z,92.8
2017-04-30T01:40:36.144Z,92.52
2017-04-30T01:41:45.676Z,92.52
2017-04-30T01:42:54.573Z,92.52
2017-04-30T01:44:04.116Z,92.52
2017-04-30T01:45:13.958Z,92.42
2017-04-30T01:46:23.170Z,92.52
2017-04-30T01:47:32.059Z,92.33
2017-04-30T01:48:41.268Z,92.71
2017-04-30T01:49:50.807Z,93.18
2017-04-30T01:51:00.492Z,92.8
2017-04-30T01:52:09.703Z,92.71
2017-04-30T01:53:18.915Z,92.61
2017-04-30T01:54:28.789Z,92.71
2017-04-30T01:55:38.653Z,92.71
2017-04-30T01:56:47.683Z,92.9
2017-04-30T01:57:56.940Z,92.71
2017-04-30T01:59:06.803Z,92.99
2017-04-30T02:00:16.337Z,93.08
2017-04-30T02:01:25.553Z,93.18
2017-04-30T02:02:35.236Z,93.65
2017-04-30T02:03:44.446Z,93.27
2017-04-30T02:04:53.337Z,93.65
2017-04-30T02:06:02.547Z,93.46
2017-04-30T02:07:11.428Z,93.84
2017-04-30T02:08:20.790Z,93.37
2017-04-30T02:09:30.333Z,93.65
2017-04-30T02:10:39.545Z,93.94
2017-04-30T02:11:48.427Z,93.84
2017-04-30T02:12:57.315Z,93.94
2017-04-30T02:14:07.115Z,93.37
2017-04-30T02:15:16.651Z,93.27
2017-04-30T02:16:25.532Z,93.75
2017-04-30T02:17:34.741Z,93.94
2017-04-30T02:18:43.950Z,94.04
2017-04-30T02:19:53.636Z,93.75
2017-04-30T02:21:02.523Z,94.32
2017-04-30T02:22:11.733Z,94.6
2017-04-30T02:23:20.948Z,94.42
2017-04-30T02:24:29.838Z,93.94
2017-04-30T02:25:39.370Z,93.84
2017-04-30T02:26:48.910Z,94.23
2017-04-30T02:27:58.127Z,93.65
2017-04-30T02:29:07.338Z,94.6
2017-04-30T02:30:16.223Z,93.65
2017-04-30T02:31:25.162Z,93.84
2017-04-30T02:32:34.370Z,94.23
2017-04-30T02:33:44.226Z,94.32
2017-04-30T02:34:53.467Z,94.23
2017-04-30T02:36:02.684Z,94.23
2017-04-30T02:37:12.047Z,94.6
2017-04-30T02:38:21.588Z,94.89
2017-04-30T02:39:30.799Z,94.42
2017-04-30T02:40:40.333Z,94.23
2017-04-30T02:41:49.538Z,94.6
2017-04-30T02:42:59.223Z,94.32
2017-04-30T02:44:08.767Z,94.42
2017-04-30T02:45:18.300Z,94.51
2017-04-30T02:46:27.509Z,95.26
2017-04-30T02:47:36.395Z,94.23
2017-04-30T02:48:45.907Z,95.36
2017-04-30T02:49:55.130Z,95.36
2017-04-30T02:51:04.995Z,95.17
2017-04-30T02:52:14.532Z,95.17
2017-04-30T02:53:24.065Z,95.07
2017-04-30T02:54:33.425Z,95.26
2017-04-30T02:55:42.633Z,95.26
2017-04-30T02:56:51.521Z,95.17
2017-04-30T02:58:00.732Z,95.36
2017-04-30T02:59:09.621Z,94.79
2017-04-30T03:00:18.882Z,94.89
2017-04-30T03:01:28.092Z,96.03
2017-04-30T03:02:36.981Z,96.22
2017-04-30T03:03:46.513Z,96.22
2017-04-30T03:04:56.050Z,95.93
2017-04-30T03:06:05.640Z,96.69
2017-04-30T03:07:15.172Z,96.5
2017-04-30T03:08:24.380Z,96.88
2017-04-30T03:09:33.267Z,96.78
2017-04-30T03:10:42.492Z,96.12
2017-04-30T03:11:51.528Z,96.59
2017-04-30T03:13:01.066Z,96.12
2017-04-30T03:14:09.952Z,96.22
2017-04-30T03:15:19.485Z,96.31
2017-04-30T03:16:28.367Z,95.93
2017-04-30T03:17:37.728Z,96.97
2017-04-30T03:18:47.589Z,96.59
2017-04-30T03:19:57.124Z,96.45
2017-04-30T03:21:06.983Z,96.36
2017-04-30T03:22:15.872Z,96.07
2017-04-30T03:23:25.557Z,96.26
2017-04-30T03:24:35.091Z,95.98
2017-04-30T03:25:43.974Z,96.83
2017-04-30T03:26:53.180Z,96.83
2017-04-30T03:28:02.384Z,96.69
2017-04-30T03:29:11.902Z,96.92
2017-04-30T03:30:21.119Z,97.11
2017-04-30T03:31:30.326Z,96.83
2017-04-30T03:32:39.533Z,96.73
2017-04-30T03:33:48.751Z,96.55
2017-04-30T03:34:58.337Z,96.64
2017-04-30T03:36:07.873Z,97.3
2017-04-30T03:37:17.738Z,97.02
2017-04-30T03:38:26.959Z,96.92
2017-04-30T03:39:36.170Z,97.11
2017-04-30T03:40:45.241Z,97.78
2017-04-30T03:41:54.451Z,96.92
2017-04-30T03:43:03.988Z,97.11
2017-04-30T03:44:13.205Z,97.11
2017-04-30T03:45:22.414Z,97.78
2017-04-30T03:46:31.450Z,98.06
2017-04-30T03:47:40.990Z,97.59
2017-04-30T03:48:50.527Z,97.78
2017-04-30T03:49:59.738Z,97.97
2017-04-30T03:51:08.630Z,97.78
2017-04-30T03:52:17.937Z,97.78
2017-04-30T03:53:27.150Z,97.02
2017-04-30T03:54:37.340Z,97.78
2017-04-30T03:55:46.548Z,97.49
2017-04-30T03:56:55.431Z,97.21
2017-04-30T03:58:05.116Z,97.59
2017-04-30T03:59:14.682Z,97.49
2017-04-30T04:00:23.898Z,97.78
2017-04-30T04:01:32.786Z,97.78
2017-04-30T04:02:41.993Z,98.16
2017-04-30T04:03:51.779Z,99.39
2017-04-30T04:05:00.993Z,98.35
2017-04-30T04:06:10.209Z,98.54
2017-04-30T04:07:19.104Z,98.16
2017-04-30T04:08:28.312Z,98.54
2017-04-30T04:09:37.850Z,98.54
2017-04-30T04:10:47.058Z,97.97
2017-04-30T04:11:55.945Z,97.59
2017-04-30T04:13:05.480Z,96.83
2017-04-30T04:14:14.698Z,97.68
2017-04-30T04:15:24.719Z,97.49
2017-04-30T04:16:33.607Z,97.78
2017-04-30T04:17:42.820Z,97.59
2017-04-30T04:18:52.361Z,98.54
2017-04-30T04:20:01.576Z,97.59
2017-04-30T04:21:10.764Z,97.97
2017-04-30T04:22:19.972Z,97.78
2017-04-30T04:23:29.180Z,98.16
2017-04-30T04:24:39.043Z,98.63
2017-04-30T04:25:48.251Z,98.54
2017-04-30T04:26:57.837Z,97.97
2017-04-30T04:28:07.052Z,97.49
2017-04-30T04:29:16.265Z,97.78
2017-04-30T04:30:25.484Z,97.49
2017-04-30T04:31:34.367Z,97.78
2017-04-30T04:32:43.361Z,97.49
2017-04-30T04:33:52.577Z,97.68
2017-04-30T04:35:01.465Z,97.68
2017-04-30T04:36:10.676Z,97.97
2017-04-30T04:37:19.564Z,97.97
2017-04-30T04:38:28.834Z,97.49
2017-04-30T04:39:38.050Z,97.59
2017-04-30T04:40:46.937Z,97.11
2017-04-30T04:41:56.475Z,97.78
2017-04-30T04:43:05.362Z,97.3
2017-04-30T04:44:15.011Z,96.83
2017-04-30T04:45:24.560Z,97.11
2017-04-30T04:46:33.772Z,97.02
2017-04-30T04:47:43.306Z,97.02
2017-04-30T04:48:52.514Z,96.64
2017-04-30T04:50:01.451Z,96.92
2017-04-30T04:51:10.337Z,96.26
2017-04-30T04:52:19.219Z,96.45
2017-04-30T04:53:28.428Z,96.55
2017-04-30T04:54:38.626Z,96.83
2017-04-30T04:55:47.662Z,96.64
2017-04-30T04:56:56.874Z,96.64
2017-04-30T04:58:06.092Z,96.45
2017-04-30T04:59:15.628Z,96.92
2017-04-30T05:00:24.846Z,97.11
2017-04-30T05:01:34.113Z,96.92
2017-04-30T05:02:43.325Z,96.64
2017-04-30T05:03:52.868Z,96.5
2017-04-30T05:05:02.408Z,96.78
2017-04-30T05:06:11.945Z,96.5
2017-04-30T05:07:20.987Z,96.69
2017-04-30T05:08:29.878Z,95.65
2017-04-30T05:09:39.094Z,96.12
2017-04-30T05:10:48.309Z,95.74
2017-04-30T05:11:57.527Z,96.59
2017-04-30T05:13:06.743Z,96.78
2017-04-30T05:14:16.284Z,96.03
2017-04-30T05:15:25.829Z,95.74
2017-04-30T05:16:34.717Z,95.74
2017-04-30T05:17:43.604Z,95.93
2017-04-30T05:18:53.192Z,95.93
2017-04-30T05:20:02.406Z,96.31
2017-04-30T05:21:11.619Z,96.22
2017-04-30T05:22:20.509Z,96.31
2017-04-30T05:23:29.399Z,96.12
2017-04-30T05:24:38.962Z,96.12
2017-04-30T05:25:48.173Z,95.74
2017-04-30T05:26:57.068Z,95.36
2017-04-30T05:28:06.606Z,95.26
2017-04-30T05:29:16.148Z,95.74
2017-04-30T05:30:25.185Z,94.6
2017-04-30T05:31:34.079Z,93.8
2017-04-30T05:32:43.292Z,93.89
2017-04-30T05:33:52.832Z,93.7
2017-04-30T05:35:02.695Z,93.89
2017-04-30T05:36:11.883Z,94.08
2017-04-30T05:37:21.103Z,94.08
2017-04-30T05:38:30.647Z,93.04
2017-04-30T05:39:40.236Z,92.18
2017-04-30T05:40:50.102Z,91.8
2017-04-30T05:41:59.462Z,91.61
2017-04-30T05:43:09.002Z,91.42
2017-04-30T05:44:18.225Z,91.71
2017-04-30T05:45:27.119Z,91.42
2017-04-30T05:46:36.334Z,91.42
2017-04-30T05:47:45.694Z,91.33
2017-04-30T05:48:55.234Z,91.71
2017-04-30T05:50:04.773Z,91.71
2017-04-30T05:51:13.659Z,91.52
2017-04-30T05:52:22.546Z,91.75
2017-04-30T05:53:31.587Z,91.52
2017-04-30T05:54:40.479Z,90.81
2017-04-30T05:55:49.363Z,90.62
2017-04-30T05:56:58.578Z,90.24
2017-04-30T05:58:07.796Z,90.71
2017-04-30T05:59:16.690Z,90.9
2017-04-30T06:00:26.233Z,91
2017-04-30T06:01:35.444Z,90.33
2017-04-30T06:02:44.345Z,90.43
2017-04-30T06:03:53.890Z,90.43
2017-04-30T06:05:03.150Z,90.33
2017-04-30T06:06:12.361Z,89.95
2017-04-30T06:07:21.576Z,90.43
2017-04-30T06:08:30.793Z,90.81
2017-04-30T06:09:40.334Z,90.24
2017-04-30T06:10:49.230Z,90.33
2017-04-30T06:11:58.449Z,90.33
2017-04-30T06:13:07.342Z,89.95
2017-04-30T06:14:16.880Z,89.86
2017-04-30T06:15:26.429Z,89.39
2017-04-30T06:16:35.320Z,89.58
2017-04-30T06:17:44.209Z,89.58
2017-04-30T06:18:53.747Z,89.39
2017-04-30T06:20:02.966Z,89.67
2017-04-30T06:21:11.861Z,89.39
2017-04-30T06:22:21.978Z,89.33
2017-04-30T06:23:30.867Z,89.58
2017-04-30T06:24:40.090Z,89.53
2017-04-30T06:25:49.311Z,89.53
2017-04-30T06:26:58.850Z,89.24
2017-04-30T06:28:08.440Z,89.72
2017-04-30T06:29:17.326Z,88.76
2017-04-30T06:30:26.867Z,88.39
2017-04-30T06:31:35.757Z,88.1
2017-04-30T06:32:44.657Z,87.34
2017-04-30T06:33:54.359Z,87.24
2017-04-30T06:35:03.570Z,87.15
2017-04-30T06:36:12.457Z,86.87
2017-04-30T06:37:21.360Z,86.01
2017-04-30T06:38:30.252Z,86.39
2017-04-30T06:39:39.997Z,86.05
2017-04-30T06:40:49.215Z,86.68
2017-04-30T06:41:58.431Z,86.15
2017-04-30T06:43:07.645Z,86.05
2017-04-30T06:44:16.866Z,86.63
2017-04-30T06:45:27.306Z,86.24
2017-04-30T06:46:36.519Z,85.68
2017-04-30T06:47:45.738Z,84.91
2017-04-30T06:48:54.951Z,84.91
2017-04-30T06:50:04.165Z,84.25
2017-04-30T06:51:13.210Z,84.16
2017-04-30T06:52:22.097Z,83.49
2017-04-30T06:53:30.991Z,82.54
2017-04-30T06:54:40.215Z,82.16
2017-04-30T06:55:49.104Z,83.39
2017-04-30T06:56:58.420Z,82.64
2017-04-30T06:58:07.644Z,81.73
2017-04-30T06:59:17.187Z,80.77
2017-04-30T07:00:27.049Z,81.06
2017-04-30T07:01:36.265Z,80.96
2017-04-30T07:02:45.633Z,81.25
2017-04-30T07:03:54.850Z,80.68
2017-04-30T07:05:04.066Z,79.06
2017-04-30T07:06:12.954Z,78.88
2017-04-30T07:07:21.848Z,78.21
2017-04-30T07:08:31.117Z,77.73
2017-04-30T07:09:40.699Z,78.21
2017-04-30T07:10:49.913Z,77.73
2017-04-30T07:11:59.780Z,78.06
2017-04-30T07:13:09.003Z,78.25
2017-04-30T07:14:18.366Z,77.77
2017-04-30T07:15:28.233Z,77.77
2017-04-30T07:16:37.128Z,76.44
2017-04-30T07:17:46.343Z,75.96
2017-04-30T07:18:56.540Z,76.35
2017-04-30T07:20:06.138Z,76.35
2017-04-30T07:21:15.033Z,76.73
2017-04-30T07:22:23.925Z,76.25
2017-04-30T07:23:32.819Z,76.54
2017-04-30T07:24:42.033Z,75.87
2017-04-30T07:25:51.312Z,75.49
2017-04-30T07:27:00.526Z,74.63
2017-04-30T07:28:09.414Z,74.35
2017-04-30T07:29:18.962Z,74.63
2017-04-30T07:30:28.507Z,74.16
2017-04-30T07:31:37.926Z,74.01
2017-04-30T07:32:46.816Z,73.82
2017-04-30T07:33:56.043Z,73.34
2017-04-30T07:35:05.257Z,72.86
2017-04-30T07:36:14.151Z,72.77
2017-04-30T07:37:23.842Z,73.34
2017-04-30T07:38:33.379Z,73.63
2017-04-30T07:39:42.924Z,73.53
2017-04-30T07:40:52.143Z,73.15
2017-04-30T07:42:01.360Z,73.06
2017-04-30T07:43:10.725Z,72.14
2017-04-30T07:44:19.947Z,71.19
2017-04-30T07:45:29.166Z,71.67
2017-04-30T07:46:38.723Z,72.05
2017-04-30T07:47:47.947Z,72.24
2017-04-30T07:48:57.643Z,71.47
2017-04-30T07:50:06.861Z,70.9
2017-04-30T07:51:15.756Z,69.76
2017-04-30T07:52:25.298Z,69.19
2017-04-30T07:53:34.517Z,68.05
2017-04-30T07:54:43.760Z,68.24
2017-04-30T07:55:52.659Z,68.15
2017-04-30T07:57:01.550Z,67.38
2017-04-30T07:58:10.442Z,67.1
2017-04-30T07:59:20.643Z,66.81
2017-04-30T08:00:30.618Z,66.72
2017-04-30T08:01:39.841Z,67.38
2017-04-30T08:02:49.061Z,66.05
2017-04-30T08:03:58.614Z,66.43
2017-04-30T08:05:08.161Z,67
2017-04-30T08:06:17.202Z,66.66
2017-04-30T08:07:26.418Z,66.75
2017-04-30T08:08:35.965Z,65.7
2017-04-30T08:09:45.183Z,65.23
2017-04-30T08:10:55.053Z,65.23
2017-04-30T08:12:04.103Z,65.13
2017-04-30T08:13:13.000Z,64.56
2017-04-30T08:14:22.550Z,65.42
2017-04-30T08:15:32.429Z,63.7
2017-04-30T08:16:41.321Z,63.51
2017-04-30T08:17:50.365Z,63.04
2017-04-30T08:18:59.910Z,63.73
2017-04-30T08:20:09.490Z,63.54
2017-04-30T08:21:18.389Z,63.64
2017-04-30T08:22:27.607Z,63.17
2017-04-30T08:23:37.123Z,63.26
2017-04-30T08:24:46.016Z,63.83
2017-04-30T08:25:55.885Z,63.07
2017-04-30T08:27:05.431Z,61.93
2017-04-30T08:28:14.330Z,60.49
2017-04-30T08:29:23.932Z,60.49
2017-04-30T08:30:33.800Z,58.59
2017-04-30T08:31:43.020Z,59.35
2017-04-30T08:32:52.242Z,58.52
2017-04-30T08:34:01.792Z,58.5
2017-04-30T08:35:11.085Z,58.69
2017-04-30T08:36:19.979Z,59
2017-04-30T08:37:28.879Z,58.24
2017-04-30T08:38:39.074Z,58.14
2017-04-30T08:39:47.966Z,58.04
2017-04-30T08:40:57.012Z,57.76
2017-04-30T08:42:06.226Z,58.04
2017-04-30T08:43:15.125Z,58.04
2017-04-30T08:44:24.036Z,58.81
2017-04-30T08:45:33.253Z,58.04
2017-04-30T08:46:43.273Z,58.33
2017-04-30T08:47:52.819Z,57.76
2017-04-30T08:49:02.693Z,57.19
2017-04-30T08:50:12.242Z,56.9
2017-04-30T08:51:21.463Z,57
2017-04-30T08:52:30.405Z,57
2017-04-30T08:53:39.953Z,57
2017-04-30T08:54:49.827Z,55.66
2017-04-30T08:55:59.372Z,54.26
2017-04-30T08:57:08.922Z,54.55
2017-04-30T08:58:17.963Z,54.55
2017-04-30T08:59:27.512Z,54.36
2017-04-30T09:00:36.729Z,53.78
2017-04-30T09:01:45.633Z,54.45
2017-04-30T09:02:54.527Z,53.69
2017-04-30T09:04:04.037Z,54.93
2017-04-30T09:05:13.258Z,53.31
2017-04-30T09:06:22.158Z,52.83
2017-04-30T09:07:31.374Z,52.64
2017-04-30T09:08:41.250Z,51.88
2017-04-30T09:09:51.104Z,52.26
2017-04-30T09:11:00.329Z,51.68
2017-04-30T09:12:09.547Z,52.16
2017-04-30T09:13:18.770Z,52.92
2017-04-30T09:14:29.016Z,53.14
2017-04-30T09:15:38.760Z,53.5
2017-04-30T09:16:47.654Z,53.14
2017-04-30T09:17:57.526Z,53.14
2017-04-30T09:19:06.748Z,53.72
2017-04-30T09:20:16.623Z,54.38
2017-04-30T09:21:25.662Z,51.71
2017-04-30T09:22:34.552Z,48.59
2017-04-30T09:23:43.450Z,48.49
2017-04-30T09:24:52.348Z,48.97
2017-04-30T09:26:01.568Z,49.16
2017-04-30T09:27:10.841Z,48.68
2017-04-30T09:28:19.735Z,48.88
2017-04-30T09:29:29.282Z,48.75
2017-04-30T09:30:38.510Z,49.52
2017-04-30T09:31:47.738Z,49.13
2017-04-30T09:32:57.490Z,48.59
2017-04-30T09:34:07.045Z,48.97
2017-04-30T09:35:15.941Z,48.49
2017-04-30T09:36:24.834Z,46.11
2017-04-30T09:37:33.728Z,46.01
2017-04-30T09:38:43.004Z,46.68
2017-04-30T09:39:52.222Z,46.58
2017-04-30T09:41:01.446Z,47.06
2017-04-30T09:42:10.340Z,46.2
2017-04-30T09:43:19.234Z,46.01
2017-04-30T09:44:28.605Z,46.87
2017-04-30T09:45:38.154Z,46.3
2017-04-30T09:46:47.376Z,46.87
2017-04-30T09:47:56.272Z,45.92
2017-04-30T09:49:06.143Z,45.15
2017-04-30T09:50:16.018Z,45.43
2017-04-30T09:51:24.915Z,44.87
2017-04-30T09:52:33.811Z,44.96
2017-04-30T09:53:43.362Z,45.06
2017-04-30T09:54:52.917Z,45.25
2017-04-30T09:56:02.940Z,45.56
2017-04-30T09:57:12.172Z,45.46
2017-04-30T09:58:21.393Z,44.02
2017-04-30T09:59:30.938Z,44.31
2017-04-30T10:00:40.158Z,44.41
2017-04-30T10:01:49.303Z,44.51
2017-04-30T10:02:58.195Z,43.65
2017-04-30T10:04:07.415Z,44.22
2017-04-30T10:05:16.959Z,44.51
2017-04-30T10:06:26.176Z,45.27
2017-04-30T10:07:35.219Z,44.34
2017-04-30T10:08:44.114Z,44.53
2017-04-30T10:09:53.014Z,43.19
2017-04-30T10:11:02.567Z,44.22
2017-04-30T10:12:11.462Z,43.93
2017-04-30T10:13:20.779Z,43.46
2017-04-30T10:14:30.651Z,43.93
2017-04-30T10:15:40.203Z,43.86
2017-04-30T10:16:49.424Z,43.57
2017-04-30T10:17:58.318Z,44.15
2017-04-30T10:19:07.687Z,44.15
2017-04-30T10:20:17.234Z,41.75
2017-04-30T10:21:26.128Z,42.81
2017-04-30T10:22:35.674Z,43.57
2017-04-30T10:23:44.897Z,44.53
2017-04-30T10:24:54.279Z,43
2017-04-30T10:26:04.157Z,43.09
2017-04-30T10:27:14.027Z,43.76
2017-04-30T10:28:23.585Z,44.24
2017-04-30T10:29:33.134Z,45.01
2017-04-30T10:30:42.504Z,44.62
2017-04-30T10:31:51.406Z,44.34
2017-04-30T10:33:00.300Z,43.38
2017-04-30T10:34:09.202Z,44.74
2017-04-30T10:35:18.773Z,44.36
2017-04-30T10:36:28.076Z,43.79
2017-04-30T10:37:36.971Z,43.12
2017-04-30T10:38:46.518Z,42.73
2017-04-30T10:39:55.737Z,43.21
2017-04-30T10:41:04.959Z,43.5
2017-04-30T10:42:14.001Z,44.26
2017-04-30T10:43:22.896Z,44.45
2017-04-30T10:44:33.422Z,44.17
2017-04-30T10:45:42.643Z,43.5
2017-04-30T10:46:51.543Z,43.4
2017-04-30T10:48:01.239Z,43.4
2017-04-30T10:49:10.461Z,43.12
2017-04-30T10:50:20.007Z,43.79
2017-04-30T10:51:29.225Z,43.3
2017-04-30T10:52:38.781Z,43.02
2017-04-30T10:53:48.429Z,42.83
2017-04-30T10:54:57.974Z,43.69
2017-04-30T10:56:07.523Z,43.4
2017-04-30T10:57:16.422Z,42.85
2017-04-30T10:58:26.297Z,43.33
2017-04-30T10:59:35.990Z,44.09
2017-04-30T11:00:45.572Z,43.14
2017-04-30T11:01:54.793Z,42.85
2017-04-30T11:03:04.015Z,42.47
2017-04-30T11:04:13.564Z,42.08
2017-04-30T11:05:22.936Z,42.66
2017-04-30T11:06:32.478Z,42.47
2017-04-30T11:07:41.368Z,43.43
2017-04-30T11:08:51.570Z,43.33
2017-04-30T11:10:00.800Z,43.14
2017-04-30T11:11:09.850Z,43.26
2017-04-30T11:12:19.102Z,42.87
2017-04-30T11:13:28.000Z,42.4
2017-04-30T11:14:37.873Z,41.34
2017-04-30T11:15:47.134Z,40.86
2017-04-30T11:16:56.613Z,41.53
2017-04-30T11:18:05.517Z,41.24
2017-04-30T11:19:15.068Z,42.76
2017-04-30T11:20:24.613Z,41.63
2017-04-30T11:21:33.513Z,41.7
2017-04-30T11:22:42.408Z,41.72
2017-04-30T11:23:51.960Z,42.01
2017-04-30T11:25:01.181Z,42.01
2017-04-30T11:26:10.407Z,41.44
2017-04-30T11:27:19.953Z,41.34
2017-04-30T11:28:29.152Z,41.34
2017-04-30T11:29:38.700Z,41.34
2017-04-30T11:30:47.921Z,41.63
2017-04-30T11:31:56.815Z,41.05
2017-04-30T11:33:06.359Z,40.95
2017-04-30T11:34:16.056Z,40.95
2017-04-30T11:35:24.958Z,40.21
2017-04-30T11:36:34.184Z,40.31
2017-04-30T11:37:43.419Z,40.98
2017-04-30T11:38:52.643Z,40.59
2017-04-30T11:40:01.914Z,40.41
2017-04-30T11:41:11.467Z,40.21
2017-04-30T11:42:20.697Z,40.41
2017-04-30T11:43:29.916Z,39.92
2017-04-30T11:44:39.140Z,39.83
2017-04-30T11:45:48.202Z,40.78
2017-04-30T11:46:57.106Z,40.98
2017-04-30T11:48:06.979Z,40.23
2017-04-30T11:49:16.537Z,39.65
2017-04-30T11:50:26.090Z,38.51
2017-04-30T11:51:35.793Z,39.73
2017-04-30T11:52:44.694Z,38.59
2017-04-30T11:53:54.579Z,38.87
2017-04-30T11:55:04.125Z,38.6
2017-04-30T11:56:13.016Z,38.59
2017-04-30T11:57:22.220Z,38.87
2017-04-30T11:58:31.121Z,38.41
2017-04-30T11:59:40.025Z,38.79
2017-04-30T12:00:49.255Z,39.65
2017-04-30T12:01:58.484Z,38.89
2017-04-30T12:03:07.684Z,38.81
2017-04-30T12:04:16.914Z,39.01
2017-04-30T12:05:26.140Z,38.81
2017-04-30T12:06:35.044Z,37.74
2017-04-30T12:07:43.954Z,37.95
2017-04-30T12:08:52.955Z,37.66
2017-04-30T12:10:02.519Z,37.18
2017-04-30T12:11:11.752Z,36.61
2017-04-30T12:12:20.657Z,37.38
2017-04-30T12:13:29.887Z,37.28
2017-04-30T12:14:39.604Z,36.8
2017-04-30T12:15:48.512Z,36.71
2017-04-30T12:16:58.068Z,36.8
2017-04-30T12:18:07.301Z,36.32
2017-04-30T12:19:16.636Z,36.9
2017-04-30T12:20:26.197Z,37.38
2017-04-30T12:21:36.123Z,36.9
2017-04-30T12:22:45.354Z,37.95
2017-04-30T12:23:54.260Z,37.66
2017-04-30T12:25:03.820Z,37.47
2017-04-30T12:26:12.928Z,36.71
2017-04-30T12:27:22.162Z,35.86
2017-04-30T12:28:31.394Z,35.38
2017-04-30T12:29:40.947Z,35.36
2017-04-30T12:30:50.174Z,34.42
2017-04-30T12:31:59.566Z,33.56
2017-04-30T12:33:09.157Z,34.41
2017-04-30T12:34:18.075Z,35.36
2017-04-30T12:35:27.637Z,34.79
2017-04-30T12:36:36.545Z,35.38
2017-04-30T12:37:45.972Z,34.52
2017-04-30T12:38:55.527Z,34.81
2017-04-30T12:40:04.433Z,35.4
2017-04-30T12:41:13.342Z,35.4
2017-04-30T12:42:22.247Z,34.25
2017-04-30T12:43:31.256Z,34.34
2017-04-30T12:44:40.820Z,35.02
2017-04-30T12:45:50.057Z,34.44
2017-04-30T12:46:59.621Z,34.25
2017-04-30T12:48:08.859Z,33.77
2017-04-30T12:49:18.146Z,33.86
2017-04-30T12:50:27.750Z,34.45
2017-04-30T12:51:36.665Z,33.48
2017-04-30T12:52:45.573Z,33
2017-04-30T12:53:55.137Z,32.62
2017-04-30T12:55:04.621Z,32.42
2017-04-30T12:56:13.527Z,32.42
2017-04-30T12:57:22.757Z,32.81
2017-04-30T12:58:31.663Z,31.95
2017-04-30T12:59:40.907Z,32.9
2017-04-30T13:00:50.245Z,33.19
2017-04-30T13:01:59.478Z,33.11
2017-04-30T13:03:08.711Z,32.44
2017-04-30T13:04:18.599Z,31.48
2017-04-30T13:05:27.847Z,31.48
2017-04-30T13:06:36.809Z,31.48
2017-04-30T13:07:46.382Z,31.77
2017-04-30T13:08:56.601Z,31.1
2017-04-30T13:10:05.512Z,30.71
2017-04-30T13:11:14.425Z,31.58
2017-04-30T13:12:23.811Z,31.67
2017-04-30T13:13:33.047Z,32.14
2017-04-30T13:14:41.964Z,32.52
2017-04-30T13:15:51.525Z,31.77
2017-04-30T13:17:00.472Z,31.58
2017-04-30T13:18:09.536Z,31.87
2017-04-30T13:19:19.428Z,31.58
2017-04-30T13:20:28.670Z,31.2
2017-04-30T13:21:37.912Z,31.48
2017-04-30T13:22:47.154Z,31.77
2017-04-30T13:23:56.870Z,31.38
2017-04-30T13:25:06.111Z,30.44
2017-04-30T13:26:15.673Z,30.63
2017-04-30T13:27:24.585Z,31.11
2017-04-30T13:28:33.822Z,30.44
2017-04-30T13:29:43.386Z,30.25
2017-04-30T13:30:52.948Z,30.25
2017-04-30T13:32:02.190Z,30.62
2017-04-30T13:33:11.104Z,31
2017-04-30T13:34:20.672Z,31.11
2017-04-30T13:35:30.810Z,31.3
2017-04-30T13:36:39.723Z,30.17
2017-04-30T13:37:48.648Z,30.07
2017-04-30T13:38:57.891Z,29
2017-04-30T13:40:07.129Z,29.38
2017-04-30T13:41:16.714Z,29.28
2017-04-30T13:42:25.950Z,29.1
2017-04-30T13:43:34.864Z,29.19
2017-04-30T13:44:44.105Z,28.44
2017-04-30T13:45:53.356Z,28.82
2017-04-30T13:47:02.429Z,28.44
2017-04-30T13:48:11.350Z,29.3
2017-04-30T13:49:21.574Z,30.07
2017-04-30T13:50:31.143Z,28.64
2017-04-30T13:51:40.058Z,28.37
2017-04-30T13:52:49.776Z,28.75
2017-04-30T13:53:59.991Z,28.56
2017-04-30T13:55:08.903Z,28.18
2017-04-30T13:56:17.821Z,27.8
2017-04-30T13:57:26.742Z,26.54
2017-04-30T13:58:36.431Z,27.28
2017-04-30T13:59:45.673Z,28.05
2017-04-30T14:00:54.919Z,28.34
2017-04-30T14:02:03.837Z,27.28
2017-04-30T14:03:13.073Z,27.48
2017-04-30T14:04:22.144Z,27.97
2017-04-30T14:05:31.384Z,27.87
2017-04-30T14:06:40.945Z,28.63
2017-04-30T14:07:49.858Z,28.34
2017-04-30T14:08:59.100Z,28.72
2017-04-30T14:10:08.815Z,28.71
2017-04-30T14:11:17.725Z,29
2017-04-30T14:12:27.288Z,28.81
2017-04-30T14:13:36.208Z,28.61
2017-04-30T14:14:45.116Z,27.95
2017-04-30T14:15:54.729Z,28.05
2017-04-30T14:17:03.961Z,27.38
2017-04-30T14:18:13.200Z,27.48
2017-04-30T14:19:22.760Z,27.38
2017-04-30T14:20:32.326Z,27.95
2017-04-30T14:21:41.283Z,27.48
2017-04-30T14:22:50.522Z,28.04
2017-04-30T14:24:00.093Z,27.49
2017-04-30T14:25:09.006Z,27.01
2017-04-30T14:26:18.241Z,26.53
2017-04-30T14:27:27.511Z,27.11
2017-04-30T14:28:36.747Z,27.38
2017-04-30T14:29:45.988Z,26.53
2017-04-30T14:30:54.897Z,25.49
2017-04-30T14:32:04.142Z,25.4
2017-04-30T14:33:13.057Z,25.13
2017-04-30T14:34:21.973Z,25.6
2017-04-30T14:35:31.536Z,25.49
2017-04-30T14:36:40.783Z,25.49
2017-04-30T14:37:49.696Z,26.27
2017-04-30T14:38:58.986Z,25.4
2017-04-30T14:40:08.546Z,25.48
2017-04-30T14:41:17.456Z,26.25
2017-04-30T14:42:26.369Z,27.3
2017-04-30T14:43:35.605Z,26.54
2017-04-30T14:44:44.901Z,26.56
2017-04-30T14:45:54.147Z,25.4
2017-04-30T14:47:03.389Z,25.4
2017-04-30T14:48:12.307Z,25.98
2017-04-30T14:49:21.548Z,25.87
2017-04-30T14:50:31.366Z,25.59
2017-04-30T14:51:40.934Z,25.2
2017-04-30T14:52:49.858Z,25.39
2017-04-30T14:53:59.429Z,25.57
2017-04-30T14:55:08.991Z,26.35